Startpagina
METAR-TAF:

METAR-TAF

Vliegvelden :

RAF

Holbeach, Engeland

breedte: 52-52N, lengte: 000-09E, hoogte: 3 m

Actueel weer

Dit bericht is 10 uur en het 1 minuten geleden gemaakt, om 16:50 UTC
Wind 5 kt uit het westzuidwesten
Temperatuur 7°C
Vochtigheid 100%
Druk 1028 hPa
Zicht 10 km of meer
Gebroken wolken op 1200 ft

METAR: EGYH 231650Z 25005KT 9999 BKN012 07/07 Q1028 RMK GRN

Tijdstip: 02:51 (02:51 UTC)


TAF: ontbreekt

Waarnemingen en weersverwachtingen van meer dan 4000 vliegvelden (METAR en TAF).

De beschikbare stations zijn de gele en rode punten op de kaart.

Ga met uw muis naar het station om de naam te zien.

Klik dan om waarnemingen en weersverwachtingen te zien.

kaart wijzigen: klik op de groene knoppen met een zwart kruis om in te zoomen, op de groene knop met een streepje om uit te zoomen of op de groene pijlen voor aangrenzende kaarten.


METAR-TAF: